Terminal Aerodrome Forecast
Issued by NWS

Home | Current Version | Previous Version | Text Only | Print | Product List | Glossary On
Versions: 1 2 3 4 5 6 7 8 9 10
000
FTUS45 KRIW 272300
TAFLND
TAF
KLND 272321Z 2800/2824 20009KT P6SM SCT060 BKN120
     FM280400 22008KT P6SM SCT050 BKN100 WS020/26035KT
     FM281400 21008KT P6SM SCT040 BKN080=

USA.gov is the U.S. government's official web portal to all federal, state and local government web resources and services.